sensor_id;sensor_type;location;lat;lon;timestamp;P1;durP1;ratioP1;P2;durP2;ratioP2
1370;SDS011;14306;49.942;11.570;2024-03-22T00:00:24;15.65;;;10.23;;
1370;SDS011;14306;49.942;11.570;2024-03-22T00:01:56;18.50;;;10.75;;
1370;SDS011;14306;49.942;11.570;2024-03-22T00:03:29;14.27;;;9.73;;
1370;SDS011;14306;49.942;11.570;2024-03-22T00:05:01;13.57;;;9.48;;
1370;SDS011;14306;49.942;11.570;2024-03-22T00:06:34;15.15;;;10.95;;
1370;SDS011;14306;49.942;11.570;2024-03-22T00:08:07;18.17;;;9.35;;
1370;SDS011;14306;49.942;11.570;2024-03-22T00:09:42;15.07;;;8.38;;
1370;SDS011;14306;49.942;11.570;2024-03-22T00:11:16;14.40;;;9.48;;
1370;SDS011;14306;49.942;11.570;2024-03-22T00:12:48;12.30;;;8.77;;
1370;SDS011;14306;49.942;11.570;2024-03-22T00:14:21;14.55;;;8.10;;
1370;SDS011;14306;49.942;11.570;2024-03-22T00:15:55;13.30;;;9.50;;
1370;SDS011;14306;49.942;11.570;2024-03-22T00:17:27;14.77;;;9.18;;
1370;SDS011;14306;49.942;11.570;2024-03-22T00:19:02;16.40;;;9.57;;
1370;SDS011;14306;49.942;11.570;2024-03-22T00:20:34;14.50;;;8.52;;
1370;SDS011;14306;49.942;11.570;2024-03-22T00:22:07;14.20;;;9.10;;
1370;SDS011;14306;49.942;11.570;2024-03-22T00:23:42;13.50;;;8.73;;
1370;SDS011;14306;49.942;11.570;2024-03-22T00:25:16;12.57;;;8.48;;
1370;SDS011;14306;49.942;11.570;2024-03-22T00:26:48;14.05;;;9.32;;
1370;SDS011;14306;49.942;11.570;2024-03-22T00:28:22;12.15;;;8.70;;
1370;SDS011;14306;49.942;11.570;2024-03-22T00:29:54;12.50;;;7.85;;
1370;SDS011;14306;49.942;11.570;2024-03-22T00:31:26;14.10;;;8.48;;
1370;SDS011;14306;49.942;11.570;2024-03-22T00:33:00;16.13;;;8.85;;
1370;SDS011;14306;49.942;11.570;2024-03-22T00:34:32;14.50;;;8.65;;
1370;SDS011;14306;49.942;11.570;2024-03-22T00:36:06;11.30;;;7.55;;
1370;SDS011;14306;49.942;11.570;2024-03-22T00:37:39;12.63;;;8.60;;
1370;SDS011;14306;49.942;11.570;2024-03-22T00:39:11;11.25;;;8.10;;
1370;SDS011;14306;49.942;11.570;2024-03-22T00:40:47;16.00;;;8.77;;
1370;SDS011;14306;49.942;11.570;2024-03-22T00:42:19;14.10;;;9.15;;
1370;SDS011;14306;49.942;11.570;2024-03-22T00:43:51;17.58;;;8.73;;
1370;SDS011;14306;49.942;11.570;2024-03-22T00:45:25;14.13;;;9.07;;
1370;SDS011;14306;49.942;11.570;2024-03-22T00:46:58;14.32;;;8.70;;
1370;SDS011;14306;49.942;11.570;2024-03-22T00:48:30;14.80;;;9.43;;
1370;SDS011;14306;49.942;11.570;2024-03-22T00:50:05;15.48;;;8.65;;
1370;SDS011;14306;49.942;11.570;2024-03-22T00:51:38;12.10;;;8.60;;
1370;SDS011;14306;49.942;11.570;2024-03-22T00:53:11;11.77;;;8.40;;
1370;SDS011;14306;49.942;11.570;2024-03-22T00:54:44;13.10;;;8.30;;
1370;SDS011;14306;49.942;11.570;2024-03-22T00:56:17;13.82;;;8.65;;
1370;SDS011;14306;49.942;11.570;2024-03-22T00:57:49;11.80;;;8.45;;
1370;SDS011;14306;49.942;11.570;2024-03-22T00:59:24;11.30;;;8.55;;
1370;SDS011;14306;49.942;11.570;2024-03-22T01:00:56;15.15;;;8.48;;
1370;SDS011;14306;49.942;11.570;2024-03-22T01:02:28;11.93;;;8.70;;
1370;SDS011;14306;49.942;11.570;2024-03-22T01:04:01;12.32;;;8.90;;
1370;SDS011;14306;49.942;11.570;2024-03-22T01:05:34;14.35;;;9.43;;
1370;SDS011;14306;49.942;11.570;2024-03-22T01:07:07;15.82;;;8.82;;
1370;SDS011;14306;49.942;11.570;2024-03-22T01:08:41;15.27;;;9.10;;
1370;SDS011;14306;49.942;11.570;2024-03-22T01:10:13;14.30;;;8.85;;
1370;SDS011;14306;49.942;11.570;2024-03-22T01:11:47;14.13;;;9.35;;
1370;SDS011;14306;49.942;11.570;2024-03-22T01:13:20;23.80;;;10.18;;
1370;SDS011;14306;49.942;11.570;2024-03-22T01:14:52;17.48;;;10.00;;
1370;SDS011;14306;49.942;11.570;2024-03-22T01:16:24;14.70;;;8.98;;
1370;SDS011;14306;49.942;11.570;2024-03-22T01:17:58;13.60;;;9.27;;
1370;SDS011;14306;49.942;11.570;2024-03-22T01:19:30;17.40;;;8.82;;
1370;SDS011;14306;49.942;11.570;2024-03-22T01:21:02;16.67;;;9.70;;
1370;SDS011;14306;49.942;11.570;2024-03-22T01:22:36;14.93;;;10.02;;
1370;SDS011;14306;49.942;11.570;2024-03-22T01:24:09;14.05;;;9.25;;
1370;SDS011;14306;49.942;11.570;2024-03-22T01:25:41;12.00;;;8.70;;
1370;SDS011;14306;49.942;11.570;2024-03-22T01:27:16;14.25;;;9.50;;
1370;SDS011;14306;49.942;11.570;2024-03-22T01:28:48;13.73;;;8.35;;
1370;SDS011;14306;49.942;11.570;2024-03-22T01:30:20;16.63;;;9.38;;
1370;SDS011;14306;49.942;11.570;2024-03-22T01:31:54;14.57;;;8.90;;
1370;SDS011;14306;49.942;11.570;2024-03-22T01:33:26;12.38;;;8.35;;
1370;SDS011;14306;49.942;11.570;2024-03-22T01:34:59;18.02;;;11.23;;
1370;SDS011;14306;49.942;11.570;2024-03-22T01:36:32;15.43;;;9.77;;
1370;SDS011;14306;49.942;11.570;2024-03-22T01:38:04;15.95;;;9.65;;
1370;SDS011;14306;49.942;11.570;2024-03-22T01:39:38;15.95;;;9.48;;
1370;SDS011;14306;49.942;11.570;2024-03-22T01:42:50;17.65;;;9.95;;
1370;SDS011;14306;49.942;11.570;2024-03-22T01:44:27;26.90;;;12.07;;
1370;SDS011;14306;49.942;11.570;2024-03-22T01:46:00;25.90;;;11.57;;
1370;SDS011;14306;49.942;11.570;2024-03-22T01:47:32;22.88;;;12.10;;
1370;SDS011;14306;49.942;11.570;2024-03-22T01:49:06;26.08;;;13.32;;
1370;SDS011;14306;49.942;11.570;2024-03-22T01:50:40;33.33;;;13.02;;
1370;SDS011;14306;49.942;11.570;2024-03-22T01:52:12;17.65;;;10.50;;
1370;SDS011;14306;49.942;11.570;2024-03-22T01:53:46;23.75;;;11.98;;
1370;SDS011;14306;49.942;11.570;2024-03-22T01:55:19;20.95;;;12.05;;
1370;SDS011;14306;49.942;11.570;2024-03-22T01:56:53;26.30;;;11.07;;
1370;SDS011;14306;49.942;11.570;2024-03-22T01:58:27;16.60;;;9.80;;
1370;SDS011;14306;49.942;11.570;2024-03-22T02:00:00;16.83;;;10.02;;
1370;SDS011;14306;49.942;11.570;2024-03-22T02:01:33;22.05;;;10.38;;
1370;SDS011;14306;49.942;11.570;2024-03-22T02:03:06;13.68;;;10.57;;
1370;SDS011;14306;49.942;11.570;2024-03-22T02:04:38;18.13;;;11.02;;
1370;SDS011;14306;49.942;11.570;2024-03-22T02:06:12;21.88;;;9.93;;
1370;SDS011;14306;49.942;11.570;2024-03-22T02:07:44;22.60;;;10.57;;
1370;SDS011;14306;49.942;11.570;2024-03-22T02:09:17;15.95;;;9.45;;
1370;SDS011;14306;49.942;11.570;2024-03-22T02:10:52;15.18;;;9.77;;
1370;SDS011;14306;49.942;11.570;2024-03-22T02:12:24;19.40;;;9.00;;
1370;SDS011;14306;49.942;11.570;2024-03-22T02:13:57;15.38;;;9.27;;
1370;SDS011;14306;49.942;11.570;2024-03-22T02:15:31;17.33;;;11.02;;
1370;SDS011;14306;49.942;11.570;2024-03-22T02:17:03;21.73;;;11.18;;
1370;SDS011;14306;49.942;11.570;2024-03-22T02:18:36;15.55;;;9.80;;
1370;SDS011;14306;49.942;11.570;2024-03-22T02:20:09;17.05;;;8.75;;
1370;SDS011;14306;49.942;11.570;2024-03-22T02:21:43;16.30;;;9.88;;
1370;SDS011;14306;49.942;11.570;2024-03-22T02:23:15;16.80;;;9.63;;
1370;SDS011;14306;49.942;11.570;2024-03-22T02:24:50;14.23;;;9.57;;
1370;SDS011;14306;49.942;11.570;2024-03-22T02:26:22;16.10;;;9.25;;
1370;SDS011;14306;49.942;11.570;2024-03-22T02:27:55;11.63;;;8.43;;
1370;SDS011;14306;49.942;11.570;2024-03-22T02:29:28;17.60;;;9.02;;
1370;SDS011;14306;49.942;11.570;2024-03-22T02:31:00;21.08;;;9.52;;
1370;SDS011;14306;49.942;11.570;2024-03-22T02:32:32;13.15;;;8.93;;
1370;SDS011;14306;49.942;11.570;2024-03-22T02:34:06;13.38;;;7.95;;
1370;SDS011;14306;49.942;11.570;2024-03-22T02:35:39;12.55;;;8.38;;
1370;SDS011;14306;49.942;11.570;2024-03-22T02:37:11;15.65;;;8.77;;
1370;SDS011;14306;49.942;11.570;2024-03-22T02:38:44;12.82;;;7.82;;
1370;SDS011;14306;49.942;11.570;2024-03-22T02:40:18;12.05;;;7.80;;
1370;SDS011;14306;49.942;11.570;2024-03-22T02:41:50;13.55;;;8.35;;
1370;SDS011;14306;49.942;11.570;2024-03-22T02:43:23;14.60;;;8.45;;
1370;SDS011;14306;49.942;11.570;2024-03-22T02:44:56;16.67;;;9.35;;
1370;SDS011;14306;49.942;11.570;2024-03-22T02:46:30;17.55;;;10.05;;
1370;SDS011;14306;49.942;11.570;2024-03-22T02:48:02;15.07;;;8.73;;
1370;SDS011;14306;49.942;11.570;2024-03-22T02:49:35;14.23;;;8.07;;
1370;SDS011;14306;49.942;11.570;2024-03-22T02:51:08;14.13;;;8.73;;
1370;SDS011;14306;49.942;11.570;2024-03-22T02:52:41;15.77;;;9.30;;
1370;SDS011;14306;49.942;11.570;2024-03-22T02:54:13;14.13;;;9.88;;
1370;SDS011;14306;49.942;11.570;2024-03-22T02:55:51;16.17;;;9.60;;
1370;SDS011;14306;49.942;11.570;2024-03-22T02:57:23;12.23;;;8.60;;
1370;SDS011;14306;49.942;11.570;2024-03-22T02:58:56;12.35;;;8.20;;
1370;SDS011;14306;49.942;11.570;2024-03-22T03:00:29;12.00;;;8.30;;
1370;SDS011;14306;49.942;11.570;2024-03-22T03:02:01;14.05;;;8.80;;
1370;SDS011;14306;49.942;11.570;2024-03-22T03:03:33;12.93;;;8.13;;
1370;SDS011;14306;49.942;11.570;2024-03-22T03:05:07;13.25;;;7.75;;
1370;SDS011;14306;49.942;11.570;2024-03-22T03:06:39;12.68;;;8.00;;
1370;SDS011;14306;49.942;11.570;2024-03-22T03:08:12;15.07;;;8.60;;
1370;SDS011;14306;49.942;11.570;2024-03-22T03:09:45;13.98;;;8.90;;
1370;SDS011;14306;49.942;11.570;2024-03-22T03:11:19;18.95;;;8.20;;
1370;SDS011;14306;49.942;11.570;2024-03-22T03:12:53;15.05;;;9.55;;
1370;SDS011;14306;49.942;11.570;2024-03-22T03:14:25;13.45;;;8.38;;
1370;SDS011;14306;49.942;11.570;2024-03-22T03:15:59;14.65;;;9.38;;
1370;SDS011;14306;49.942;11.570;2024-03-22T03:17:31;17.25;;;8.68;;
1370;SDS011;14306;49.942;11.570;2024-03-22T03:19:03;16.70;;;8.63;;
1370;SDS011;14306;49.942;11.570;2024-03-22T03:20:36;14.57;;;8.73;;
1370;SDS011;14306;49.942;11.570;2024-03-22T03:22:09;11.75;;;8.30;;
1370;SDS011;14306;49.942;11.570;2024-03-22T03:23:41;12.77;;;9.50;;
1370;SDS011;14306;49.942;11.570;2024-03-22T03:25:14;12.60;;;8.57;;
1370;SDS011;14306;49.942;11.570;2024-03-22T03:26:48;16.23;;;8.60;;
1370;SDS011;14306;49.942;11.570;2024-03-22T03:28:20;16.80;;;9.55;;
1370;SDS011;14306;49.942;11.570;2024-03-22T03:29:53;12.85;;;9.00;;
1370;SDS011;14306;49.942;11.570;2024-03-22T03:31:25;13.05;;;9.15;;
1370;SDS011;14306;49.942;11.570;2024-03-22T03:32:57;14.60;;;9.35;;
1370;SDS011;14306;49.942;11.570;2024-03-22T03:34:31;16.45;;;9.32;;
1370;SDS011;14306;49.942;11.570;2024-03-22T03:36:04;13.80;;;8.48;;
1370;SDS011;14306;49.942;11.570;2024-03-22T03:37:36;17.80;;;9.95;;
1370;SDS011;14306;49.942;11.570;2024-03-22T03:39:09;12.02;;;8.05;;
1370;SDS011;14306;49.942;11.570;2024-03-22T03:40:41;13.80;;;9.25;;
1370;SDS011;14306;49.942;11.570;2024-03-22T03:42:15;19.70;;;9.23;;
1370;SDS011;14306;49.942;11.570;2024-03-22T03:43:48;16.55;;;9.73;;
1370;SDS011;14306;49.942;11.570;2024-03-22T03:45:20;17.13;;;8.82;;
1370;SDS011;14306;49.942;11.570;2024-03-22T03:46:53;14.90;;;9.30;;
1370;SDS011;14306;49.942;11.570;2024-03-22T03:48:26;19.13;;;10.50;;
1370;SDS011;14306;49.942;11.570;2024-03-22T03:49:59;16.70;;;9.65;;
1370;SDS011;14306;49.942;11.570;2024-03-22T03:51:31;15.15;;;10.32;;
1370;SDS011;14306;49.942;11.570;2024-03-22T03:53:04;14.65;;;9.27;;
1370;SDS011;14306;49.942;11.570;2024-03-22T03:54:36;14.82;;;9.05;;
1370;SDS011;14306;49.942;11.570;2024-03-22T03:56:10;18.83;;;10.07;;
1370;SDS011;14306;49.942;11.570;2024-03-22T03:57:44;16.27;;;9.95;;
1370;SDS011;14306;49.942;11.570;2024-03-22T03:59:16;18.27;;;8.85;;
1370;SDS011;14306;49.942;11.570;2024-03-22T04:00:49;15.02;;;9.10;;
1370;SDS011;14306;49.942;11.570;2024-03-22T04:02:22;17.98;;;9.70;;
1370;SDS011;14306;49.942;11.570;2024-03-22T04:03:55;14.07;;;9.30;;
1370;SDS011;14306;49.942;11.570;2024-03-22T04:05:27;13.75;;;8.93;;
1370;SDS011;14306;49.942;11.570;2024-03-22T04:07:01;24.70;;;9.15;;
1370;SDS011;14306;49.942;11.570;2024-03-22T04:08:34;15.20;;;8.68;;
1370;SDS011;14306;49.942;11.570;2024-03-22T04:10:07;16.67;;;8.98;;
1370;SDS011;14306;49.942;11.570;2024-03-22T07:26:55;15.63;;;10.07;;
1370;SDS011;14306;49.942;11.570;2024-03-22T07:28:28;16.27;;;10.23;;
1370;SDS011;14306;49.942;11.570;2024-03-22T07:30:01;15.23;;;10.32;;
1370;SDS011;14306;49.942;11.570;2024-03-22T07:31:34;18.38;;;10.32;;
1370;SDS011;14306;49.942;11.570;2024-03-22T07:33:07;21.70;;;10.38;;
1370;SDS011;14306;49.942;11.570;2024-03-22T07:34:41;17.35;;;10.52;;
1370;SDS011;14306;49.942;11.570;2024-03-22T07:36:15;19.58;;;11.07;;
1370;SDS011;14306;49.942;11.570;2024-03-22T07:37:48;16.48;;;10.90;;
1370;SDS011;14306;49.942;11.570;2024-03-22T07:39:22;19.70;;;10.13;;
1370;SDS011;14306;49.942;11.570;2024-03-22T07:40:54;18.25;;;10.68;;
1370;SDS011;14306;49.942;11.570;2024-03-22T07:42:30;16.50;;;9.38;;
1370;SDS011;14306;49.942;11.570;2024-03-22T07:44:02;20.80;;;12.90;;
1370;SDS011;14306;49.942;11.570;2024-03-22T07:45:36;16.90;;;11.15;;
1370;SDS011;14306;49.942;11.570;2024-03-22T07:47:10;15.85;;;9.65;;
1370;SDS011;14306;49.942;11.570;2024-03-22T07:48:43;15.52;;;9.55;;
1370;SDS011;14306;49.942;11.570;2024-03-22T07:50:15;11.88;;;9.15;;
1370;SDS011;14306;49.942;11.570;2024-03-22T07:51:49;13.15;;;9.43;;
1370;SDS011;14306;49.942;11.570;2024-03-22T07:53:22;12.32;;;9.30;;
1370;SDS011;14306;49.942;11.570;2024-03-22T07:54:54;14.70;;;9.45;;
1370;SDS011;14306;49.942;11.570;2024-03-22T07:56:28;14.10;;;9.25;;
1370;SDS011;14306;49.942;11.570;2024-03-22T07:58:01;16.95;;;9.70;;
1370;SDS011;14306;49.942;11.570;2024-03-22T07:59:34;13.70;;;9.07;;
1370;SDS011;14306;49.942;11.570;2024-03-22T08:01:08;15.20;;;11.13;;
1370;SDS011;14306;49.942;11.570;2024-03-22T08:02:41;14.82;;;10.32;;
1370;SDS011;14306;49.942;11.570;2024-03-22T08:04:13;16.05;;;11.23;;
1370;SDS011;14306;49.942;11.570;2024-03-22T08:05:46;17.40;;;10.93;;
1370;SDS011;14306;49.942;11.570;2024-03-22T08:07:19;19.00;;;12.68;;
1370;SDS011;14306;49.942;11.570;2024-03-22T08:08:53;25.80;;;11.45;;
1370;SDS011;14306;49.942;11.570;2024-03-22T08:10:26;21.42;;;11.70;;
1370;SDS011;14306;49.942;11.570;2024-03-22T08:11:59;21.88;;;11.63;;
1370;SDS011;14306;49.942;11.570;2024-03-22T08:13:34;16.40;;;11.07;;
1370;SDS011;14306;49.942;11.570;2024-03-22T08:15:07;18.50;;;11.20;;
1370;SDS011;14306;49.942;11.570;2024-03-22T08:16:40;20.38;;;12.10;;
1370;SDS011;14306;49.942;11.570;2024-03-22T08:18:14;25.58;;;12.40;;
1370;SDS011;14306;49.942;11.570;2024-03-22T08:19:47;18.75;;;11.30;;
1370;SDS011;14306;49.942;11.570;2024-03-22T08:21:20;18.50;;;11.68;;
1370;SDS011;14306;49.942;11.570;2024-03-22T08:22:53;17.67;;;11.13;;
1370;SDS011;14306;49.942;11.570;2024-03-22T08:24:27;21.20;;;13.40;;
1370;SDS011;14306;49.942;11.570;2024-03-22T08:25:59;18.83;;;12.25;;
1370;SDS011;14306;49.942;11.570;2024-03-22T08:27:32;24.00;;;13.55;;
1370;SDS011;14306;49.942;11.570;2024-03-22T08:29:07;23.55;;;12.73;;
1370;SDS011;14306;49.942;11.570;2024-03-22T08:30:39;20.27;;;11.98;;
1370;SDS011;14306;49.942;11.570;2024-03-22T08:32:13;26.23;;;12.70;;
1370;SDS011;14306;49.942;11.570;2024-03-22T08:33:46;23.17;;;12.75;;
1370;SDS011;14306;49.942;11.570;2024-03-22T08:35:18;17.05;;;12.57;;
1370;SDS011;14306;49.942;11.570;2024-03-22T08:36:52;21.35;;;14.35;;
1370;SDS011;14306;49.942;11.570;2024-03-22T08:38:24;25.80;;;14.10;;
1370;SDS011;14306;49.942;11.570;2024-03-22T08:39:58;23.60;;;14.02;;
1370;SDS011;14306;49.942;11.570;2024-03-22T08:41:31;20.38;;;12.35;;
1370;SDS011;14306;49.942;11.570;2024-03-22T08:43:04;23.20;;;12.27;;
1370;SDS011;14306;49.942;11.570;2024-03-22T08:44:40;25.35;;;15.15;;
1370;SDS011;14306;49.942;11.570;2024-03-22T08:46:14;24.83;;;14.20;;
1370;SDS011;14306;49.942;11.570;2024-03-22T08:47:47;25.73;;;14.93;;
1370;SDS011;14306;49.942;11.570;2024-03-22T08:49:19;24.63;;;15.83;;
1370;SDS011;14306;49.942;11.570;2024-03-22T08:50:53;25.67;;;14.67;;
1370;SDS011;14306;49.942;11.570;2024-03-22T08:52:25;22.47;;;13.97;;
1370;SDS011;14306;49.942;11.570;2024-03-22T08:53:57;23.30;;;14.00;;
1370;SDS011;14306;49.942;11.570;2024-03-22T08:55:32;38.63;;;16.70;;
1370;SDS011;14306;49.942;11.570;2024-03-22T08:57:04;19.20;;;13.17;;
1370;SDS011;14306;49.942;11.570;2024-03-22T08:58:38;18.90;;;12.30;;
1370;SDS011;14306;49.942;11.570;2024-03-22T09:00:13;18.20;;;12.73;;
1370;SDS011;14306;49.942;11.570;2024-03-22T09:01:46;20.50;;;13.70;;
1370;SDS011;14306;49.942;11.570;2024-03-22T09:03:20;17.73;;;11.40;;
1370;SDS011;14306;49.942;11.570;2024-03-22T09:04:54;18.83;;;13.93;;
1370;SDS011;14306;49.942;11.570;2024-03-22T09:06:27;19.27;;;14.40;;
1370;SDS011;14306;49.942;11.570;2024-03-22T09:08:01;19.20;;;13.77;;
1370;SDS011;14306;49.942;11.570;2024-03-22T09:09:35;17.40;;;14.33;;
1370;SDS011;14306;49.942;11.570;2024-03-22T09:11:07;20.33;;;14.97;;
1370;SDS011;14306;49.942;11.570;2024-03-22T09:12:41;20.70;;;14.73;;
1370;SDS011;14306;49.942;11.570;2024-03-22T09:14:14;22.83;;;15.10;;
1370;SDS011;14306;49.942;11.570;2024-03-22T09:15:48;19.80;;;14.53;;
1370;SDS011;14306;49.942;11.570;2024-03-22T09:17:29;21.40;;;14.73;;
1370;SDS011;14306;49.942;11.570;2024-03-22T09:19:02;16.77;;;13.27;;
1370;SDS011;14306;49.942;11.570;2024-03-22T09:20:36;23.00;;;15.00;;
1370;SDS011;14306;49.942;11.570;2024-03-22T09:22:08;22.33;;;14.50;;
1370;SDS011;14306;49.942;11.570;2024-03-22T09:23:41;20.77;;;14.53;;
1370;SDS011;14306;49.942;11.570;2024-03-22T09:25:15;24.57;;;15.47;;
1370;SDS011;14306;49.942;11.570;2024-03-22T09:26:48;20.20;;;12.97;;
1370;SDS011;14306;49.942;11.570;2024-03-22T09:28:21;25.60;;;14.63;;
1370;SDS011;14306;49.942;11.570;2024-03-22T09:29:54;20.50;;;15.07;;
1370;SDS011;14306;49.942;11.570;2024-03-22T09:31:28;22.10;;;13.57;;
1370;SDS011;14306;49.942;11.570;2024-03-22T09:33:02;20.50;;;13.77;;
1370;SDS011;14306;49.942;11.570;2024-03-22T09:34:35;24.07;;;14.10;;
1370;SDS011;14306;49.942;11.570;2024-03-22T09:36:08;24.47;;;14.47;;
1370;SDS011;14306;49.942;11.570;2024-03-22T09:37:41;20.60;;;13.20;;
1370;SDS011;14306;49.942;11.570;2024-03-22T09:39:14;21.17;;;13.73;;
1370;SDS011;14306;49.942;11.570;2024-03-22T09:40:47;28.60;;;15.73;;
1370;SDS011;14306;49.942;11.570;2024-03-22T09:42:19;19.80;;;13.43;;
1370;SDS011;14306;49.942;11.570;2024-03-22T09:43:57;19.83;;;13.50;;
1370;SDS011;14306;49.942;11.570;2024-03-22T09:45:31;31.13;;;15.50;;
1370;SDS011;14306;49.942;11.570;2024-03-22T09:47:06;24.07;;;15.20;;
1370;SDS011;14306;49.942;11.570;2024-03-22T09:48:41;22.87;;;14.80;;
1370;SDS011;14306;49.942;11.570;2024-03-22T09:50:14;24.10;;;14.77;;
1370;SDS011;14306;49.942;11.570;2024-03-22T09:51:47;25.60;;;14.17;;
1370;SDS011;14306;49.942;11.570;2024-03-22T09:53:24;25.70;;;15.40;;
1370;SDS011;14306;49.942;11.570;2024-03-22T09:54:58;25.33;;;13.13;;
1370;SDS011;14306;49.942;11.570;2024-03-22T09:56:31;20.90;;;14.37;;
1370;SDS011;14306;49.942;11.570;2024-03-22T09:58:05;23.57;;;13.57;;
1370;SDS011;14306;49.942;11.570;2024-03-22T09:59:38;23.07;;;14.57;;
1370;SDS011;14306;49.942;11.570;2024-03-22T10:01:11;26.70;;;15.70;;
1370;SDS011;14306;49.942;11.570;2024-03-22T10:02:48;19.23;;;14.30;;
1370;SDS011;14306;49.942;11.570;2024-03-22T10:04:21;25.20;;;14.87;;
1370;SDS011;14306;49.942;11.570;2024-03-22T10:05:54;19.20;;;13.70;;
1370;SDS011;14306;49.942;11.570;2024-03-22T10:07:28;32.47;;;14.07;;
1370;SDS011;14306;49.942;11.570;2024-03-22T10:09:02;21.40;;;15.20;;
1370;SDS011;14306;49.942;11.570;2024-03-22T10:10:37;20.30;;;13.60;;
1370;SDS011;14306;49.942;11.570;2024-03-22T10:12:10;26.33;;;13.20;;
1370;SDS011;14306;49.942;11.570;2024-03-22T10:13:43;21.07;;;14.30;;
1370;SDS011;14306;49.942;11.570;2024-03-22T10:15:16;24.43;;;16.10;;
1370;SDS011;14306;49.942;11.570;2024-03-22T10:16:50;22.90;;;15.57;;
1370;SDS011;14306;49.942;11.570;2024-03-22T10:18:27;21.70;;;14.57;;
1370;SDS011;14306;49.942;11.570;2024-03-22T10:20:01;24.40;;;15.23;;
1370;SDS011;14306;49.942;11.570;2024-03-22T10:21:35;24.50;;;15.13;;
1370;SDS011;14306;49.942;11.570;2024-03-22T10:23:07;23.73;;;15.40;;
1370;SDS011;14306;49.942;11.570;2024-03-22T10:24:40;22.00;;;15.30;;
1370;SDS011;14306;49.942;11.570;2024-03-22T10:26:14;23.27;;;15.20;;
1370;SDS011;14306;49.942;11.570;2024-03-22T10:27:47;22.60;;;14.07;;
1370;SDS011;14306;49.942;11.570;2024-03-22T10:29:21;24.30;;;14.40;;
1370;SDS011;14306;49.942;11.570;2024-03-22T10:30:54;21.80;;;14.70;;
1370;SDS011;14306;49.942;11.570;2024-03-22T10:32:26;20.57;;;14.77;;
1370;SDS011;14306;49.942;11.570;2024-03-22T10:34:03;19.97;;;13.93;;
1370;SDS011;14306;49.942;11.570;2024-03-22T10:35:36;19.60;;;14.50;;
1370;SDS011;14306;49.942;11.570;2024-03-22T10:37:10;20.50;;;14.53;;
1370;SDS011;14306;49.942;11.570;2024-03-22T10:38:48;22.63;;;14.67;;
1370;SDS011;14306;49.942;11.570;2024-03-22T10:40:23;21.90;;;14.00;;
1370;SDS011;14306;49.942;11.570;2024-03-22T10:41:58;19.57;;;13.43;;
1370;SDS011;14306;49.942;11.570;2024-03-22T10:43:31;20.80;;;13.70;;
1370;SDS011;14306;49.942;11.570;2024-03-22T10:45:04;19.57;;;13.47;;
1370;SDS011;14306;49.942;11.570;2024-03-22T10:46:38;20.67;;;13.93;;
1370;SDS011;14306;49.942;11.570;2024-03-22T10:48:16;22.40;;;14.23;;
1370;SDS011;14306;49.942;11.570;2024-03-22T10:49:54;21.20;;;14.80;;
1370;SDS011;14306;49.942;11.570;2024-03-22T10:51:32;20.20;;;13.70;;
1370;SDS011;14306;49.942;11.570;2024-03-22T10:53:09;19.43;;;12.83;;
1370;SDS011;14306;49.942;11.570;2024-03-22T10:54:46;19.00;;;13.80;;
1370;SDS011;14306;49.942;11.570;2024-03-22T10:56:19;16.47;;;12.07;;
1370;SDS011;14306;49.942;11.570;2024-03-22T10:57:55;21.13;;;14.10;;
1370;SDS011;14306;49.942;11.570;2024-03-22T10:59:33;15.97;;;11.07;;
1370;SDS011;14306;49.942;11.570;2024-03-22T11:01:06;18.87;;;12.67;;
1370;SDS011;14306;49.942;11.570;2024-03-22T11:02:53;16.93;;;12.10;;
1370;SDS011;14306;49.942;11.570;2024-03-22T11:04:29;21.30;;;13.40;;
1370;SDS011;14306;49.942;11.570;2024-03-22T11:06:07;18.33;;;13.60;;
1370;SDS011;14306;49.942;11.570;2024-03-22T11:07:39;17.27;;;12.17;;
1370;SDS011;14306;49.942;11.570;2024-03-22T11:09:12;20.80;;;13.70;;
1370;SDS011;14306;49.942;11.570;2024-03-22T11:10:53;23.17;;;12.90;;
1370;SDS011;14306;49.942;11.570;2024-03-22T11:12:25;16.73;;;12.70;;
1370;SDS011;14306;49.942;11.570;2024-03-22T11:13:59;17.67;;;11.70;;
1370;SDS011;14306;49.942;11.570;2024-03-22T11:15:32;15.80;;;11.80;;
1370;SDS011;14306;49.942;11.570;2024-03-22T11:17:07;17.03;;;11.63;;
1370;SDS011;14306;49.942;11.570;2024-03-22T11:18:39;19.17;;;11.27;;
1370;SDS011;14306;49.942;11.570;2024-03-22T11:20:12;17.57;;;11.97;;
1370;SDS011;14306;49.942;11.570;2024-03-22T11:21:48;17.43;;;11.37;;
1370;SDS011;14306;49.942;11.570;2024-03-22T11:23:20;21.80;;;12.70;;
1370;SDS011;14306;49.942;11.570;2024-03-22T11:24:53;17.10;;;11.50;;
1370;SDS011;14306;49.942;11.570;2024-03-22T11:26:27;16.00;;;10.30;;
1370;SDS011;14306;49.942;11.570;2024-03-22T11:28:00;14.60;;;10.30;;
1370;SDS011;14306;49.942;11.570;2024-03-22T11:29:33;18.80;;;11.30;;
1370;SDS011;14306;49.942;11.570;2024-03-22T11:31:06;16.33;;;9.40;;
1370;SDS011;14306;49.942;11.570;2024-03-22T11:32:39;13.83;;;10.00;;
1370;SDS011;14306;49.942;11.570;2024-03-22T11:34:14;12.80;;;9.43;;
1370;SDS011;14306;49.942;11.570;2024-03-22T11:35:47;16.30;;;9.00;;
1370;SDS011;14306;49.942;11.570;2024-03-22T11:37:22;13.40;;;8.10;;
1370;SDS011;14306;49.942;11.570;2024-03-22T11:38:55;12.87;;;8.83;;
1370;SDS011;14306;49.942;11.570;2024-03-22T11:40:28;12.10;;;8.13;;
1370;SDS011;14306;49.942;11.570;2024-03-22T11:42:02;13.30;;;8.13;;
1370;SDS011;14306;49.942;11.570;2024-03-22T11:43:37;10.73;;;7.80;;
1370;SDS011;14306;49.942;11.570;2024-03-22T11:45:11;17.50;;;8.43;;
1370;SDS011;14306;49.942;11.570;2024-03-22T11:46:45;12.30;;;8.13;;
1370;SDS011;14306;49.942;11.570;2024-03-22T11:48:19;16.27;;;9.60;;
1370;SDS011;14306;49.942;11.570;2024-03-22T11:49:52;12.63;;;8.67;;
1370;SDS011;14306;49.942;11.570;2024-03-22T11:51:26;12.90;;;8.40;;
1370;SDS011;14306;49.942;11.570;2024-03-22T11:53:01;14.93;;;9.93;;
1370;SDS011;14306;49.942;11.570;2024-03-22T11:54:36;11.20;;;8.83;;
1370;SDS011;14306;49.942;11.570;2024-03-22T11:56:09;13.13;;;9.90;;
1370;SDS011;14306;49.942;11.570;2024-03-22T11:57:47;14.70;;;9.00;;
1370;SDS011;14306;49.942;11.570;2024-03-22T11:59:20;11.90;;;8.63;;
1370;SDS011;14306;49.942;11.570;2024-03-22T12:00:53;14.07;;;8.50;;
1370;SDS011;14306;49.942;11.570;2024-03-22T12:02:27;12.00;;;8.47;;
1370;SDS011;14306;49.942;11.570;2024-03-22T12:04:01;13.13;;;8.93;;
1370;SDS011;14306;49.942;11.570;2024-03-22T12:05:34;15.40;;;9.10;;
1370;SDS011;14306;49.942;11.570;2024-03-22T12:07:09;20.53;;;8.77;;
1370;SDS011;14306;49.942;11.570;2024-03-22T12:08:46;12.70;;;8.93;;
1370;SDS011;14306;49.942;11.570;2024-03-22T12:10:21;11.53;;;8.67;;
1370;SDS011;14306;49.942;11.570;2024-03-22T12:12:07;14.03;;;9.33;;
1370;SDS011;14306;49.942;11.570;2024-03-22T12:13:40;9.60;;;7.83;;
1370;SDS011;14306;49.942;11.570;2024-03-22T12:15:14;14.27;;;7.83;;
1370;SDS011;14306;49.942;11.570;2024-03-22T12:16:46;14.33;;;9.20;;
1370;SDS011;14306;49.942;11.570;2024-03-22T12:18:19;10.33;;;7.57;;
1370;SDS011;14306;49.942;11.570;2024-03-22T12:19:52;12.37;;;7.60;;
1370;SDS011;14306;49.942;11.570;2024-03-22T12:21:25;11.47;;;8.47;;
1370;SDS011;14306;49.942;11.570;2024-03-22T12:22:58;13.03;;;7.80;;
1370;SDS011;14306;49.942;11.570;2024-03-22T12:24:32;12.73;;;8.60;;
1370;SDS011;14306;49.942;11.570;2024-03-22T12:26:04;10.50;;;7.87;;
1370;SDS011;14306;49.942;11.570;2024-03-22T12:27:38;10.07;;;8.37;;